首页
METAR-TAF:

METAR-TAF

机场 :

塔波拉, 坦桑尼亚

纬度: 05-05S, 经度: 032-50E, 海拔: 1181米

当前天气观测

该预报发布于1小时和27分钟前的18:00 UTC
静风
温度 21°C
湿度 46%
气压 1020 hPa
能见度10公里或以上
1500米以下无云,无积雨云

METAR: HTTB 241800Z 00000KT CAVOK 21/09 Q1020 NOSIG

时间: 22:27 (19:27 UTC)

预报

该预报发布于2小时和27分钟前的17:00 UTC
预报有效从24日的 18点(UTC)到 25日的 18点(UTC)
风速10节,风向东南
能见度10公里或以上
1500米以下无云,无积雨云

TAF: HTTB 241700Z 2418/2518 14010KT CAVOK

超过4000个机场的气象观测和天气预报(METAR&TAF报告)。

可查询的气象台以黄色和红色小点在地图上表示。

将鼠标移到小点上方,可查看气象台名称。

然后点击查看天气观测和预报。

如需切换地图:点击带黑十字的绿色按钮放大地图;点击带横线的绿色按钮缩小地图;或者点击绿色箭头查看邻近地区的地图。


METAR-TAF: